Time;durP1;ratioP1;P1;durP2;ratioP2;P2;SDS_P1;SDS_P2;PMS_P1;PMS_P2;Temp;Humidity;BMP_temperature;BMP_pressure;BME280_temperature;BME280_humidity;BME280_pressure;Samples;Min_cycle;Max_cycle;Signal;HPM_P1;HPM_P2
2023/10/25 00:00:54;;;;;;;18.90;10.90;;;;;;;12.33;100.00;96257.94;106694;1268;24279;-88
2023/10/25 00:03:32;;;;;;;17.30;12.80;;;;;;;12.33;100.00;96257.04;106864;1284;22724;-87
2023/10/25 00:06:00;;;;;;;17.50;10.70;;;;;;;12.34;100.00;96253.81;106436;1283;23014;-89
2023/10/25 00:08:28;;;;;;;12.50;10.30;;;;;;;12.36;100.00;96250.98;106601;1277;22663;-88
2023/10/25 00:11:07;;;;;;;14.80;10.00;;;;;;;12.36;100.00;96249.53;106605;1283;22620;-88
2023/10/25 00:13:35;;;;;;;14.90;10.50;;;;;;;12.34;100.00;96247.64;106575;1277;23152;-88
2023/10/25 00:16:04;;;;;;;15.10;9.80;;;;;;;12.34;100.00;96244.23;106457;1283;25593;-89
2023/10/25 00:18:32;;;;;;;16.10;10.10;;;;;;;12.34;100.00;96240.39;106471;1284;22604;-89
2023/10/25 00:21:00;;;;;;;16.50;10.90;;;;;;;12.36;100.00;96235.88;106812;1282;25554;-89
2023/10/25 00:23:28;;;;;;;17.20;11.90;;;;;;;12.36;100.00;96233.48;106565;1284;25627;-89
2023/10/25 00:25:55;;;;;;;20.50;11.00;;;;;;;12.36;100.00;96229.40;106688;1280;22746;-88
2023/10/25 00:28:23;;;;;;;20.40;12.30;;;;;;;12.36;100.00;96221.61;106600;1273;25510;-88
2023/10/25 00:31:16;;;;;;;16.80;9.90;;;;;;;12.36;100.00;96219.45;106481;1284;24226;-87
2023/10/25 00:33:44;;;;;;;17.00;10.60;;;;;;;12.36;100.00;96211.04;106597;1283;24287;-86
2023/10/25 00:36:12;;;;;;;15.20;10.70;;;;;;;12.37;100.00;96210.45;106545;1282;22544;-87
2023/10/25 00:39:31;;;;;;;16.10;10.00;;;;;;;12.37;100.00;96207.73;106756;1284;22557;-87
2023/10/25 00:42:00;;;;;;;18.10;11.80;;;;;;;12.37;100.00;96202.11;106629;1284;22550;-87
2023/10/25 00:44:28;;;;;;;17.10;10.50;;;;;;;12.39;100.00;96199.73;106652;1283;22706;-87
2023/10/25 00:46:57;;;;;;;13.50;9.30;;;;;;;12.39;100.00;96200.06;106639;1277;24203;-86
2023/10/25 00:49:26;;;;;;;15.80;10.20;;;;;;;12.40;100.00;96196.92;106598;1280;26637;-86
2023/10/25 00:51:55;;;;;;;14.40;10.00;;;;;;;12.42;100.00;96191.56;106808;1282;22618;-87
2023/10/25 00:54:23;;;;;;;16.50;9.90;;;;;;;12.44;100.00;96185.51;106670;1284;22672;-89
2023/10/25 00:56:53;;;;;;;15.90;10.50;;;;;;;12.44;100.00;96180.73;108139;1284;23335;-86
2023/10/25 00:59:21;;;;;;;14.50;8.70;;;;;;;12.46;100.00;96182.54;108052;1276;22362;-85
2023/10/25 01:01:50;;;;;;;14.30;9.70;;;;;;;12.45;100.00;96174.51;107625;1270;23057;-87
2023/10/25 01:04:18;;;;;;;14.90;9.50;;;;;;;12.47;100.00;96174.52;106912;1284;22863;-86
2023/10/25 01:11:14;;;;;;;;;;;;;;;12.45;100.00;96167.88;106577;1284;22535;-86
2023/10/25 01:13:42;;;;;;;19.10;10.40;;;;;;;12.43;100.00;96160.95;106607;1283;22548;-86
2023/10/25 01:16:10;;;;;;;16.10;10.50;;;;;;;12.41;100.00;96158.89;106477;1283;24485;-89
2023/10/25 01:18:39;;;;;;;17.60;10.20;;;;;;;12.41;100.00;96156.73;106602;1284;24386;-89
2023/10/25 01:21:07;;;;;;;19.30;9.60;;;;;;;12.42;100.00;96152.21;106477;1281;25514;-88
2023/10/25 01:23:35;;;;;;;17.50;9.90;;;;;;;12.44;100.00;96148.33;106465;1285;22668;-87
2023/10/25 01:26:04;;;;;;;16.90;10.00;;;;;;;12.47;100.00;96151.01;106532;1269;24376;-87
2023/10/25 01:28:32;;;;;;;19.30;10.00;;;;;;;12.49;100.00;96146.71;106520;1284;23306;-84
2023/10/25 01:31:01;;;;;;;14.60;11.20;;;;;;;12.51;100.00;96144.45;106538;1273;22701;-85
2023/10/25 01:33:29;;;;;;;19.40;10.20;;;;;;;12.54;100.00;96143.67;106596;1271;24277;-84
2023/10/25 01:35:57;;;;;;;18.10;9.90;;;;;;;12.55;100.00;96142.60;106571;1284;25294;-84
2023/10/25 01:38:25;;;;;;;17.20;10.20;;;;;;;12.54;100.00;96142.95;106646;1268;24448;-84
2023/10/25 01:40:53;;;;;;;20.90;11.00;;;;;;;12.56;100.00;96141.54;106694;1282;23782;-84
2023/10/25 01:43:21;;;;;;;19.80;11.10;;;;;;;12.56;100.00;96139.63;106618;1273;22679;-84
2023/10/25 01:45:49;;;;;;;16.20;9.10;;;;;;;12.57;100.00;96138.61;106566;1282;24339;-83
2023/10/25 01:48:17;;;;;;;16.90;10.90;;;;;;;12.58;100.00;96139.80;106789;1282;22868;-84
2023/10/25 01:50:45;;;;;;;16.40;11.40;;;;;;;12.58;100.00;96141.29;106788;1277;25407;-85
2023/10/25 01:53:13;;;;;;;20.20;12.60;;;;;;;12.57;100.00;96141.95;106769;1270;22673;-84
2023/10/25 01:55:41;;;;;;;20.80;12.10;;;;;;;12.59;100.00;96143.23;106763;1280;22546;-85
2023/10/25 01:58:09;;;;;;;21.90;10.70;;;;;;;12.61;100.00;96142.41;106563;1281;25480;-84
2023/10/25 02:00:39;;;;;;;19.00;12.10;;;;;;;12.61;100.00;96139.25;106621;1282;24189;-84
2023/10/25 02:03:07;;;;;;;19.30;12.30;;;;;;;12.63;100.00;96140.84;106523;1284;25442;-83
2023/10/25 02:05:36;;;;;;;19.90;12.60;;;;;;;12.66;100.00;96136.42;106501;1283;22529;-84
2023/10/25 02:08:04;;;;;;;20.20;12.10;;;;;;;12.68;100.00;96136.33;106603;1268;23154;-84
2023/10/25 02:10:33;;;;;;;24.60;13.60;;;;;;;12.69;100.00;96131.92;106659;1282;22582;-83
2023/10/25 02:13:01;;;;;;;21.00;12.90;;;;;;;12.72;100.00;96128.44;106511;1282;22564;-84
2023/10/25 02:15:29;;;;;;;20.60;11.70;;;;;;;12.74;100.00;96126.70;106466;1282;22670;-84
2023/10/25 02:17:57;;;;;;;18.20;11.60;;;;;;;12.74;100.00;96123.93;106431;1282;24297;-84
2023/10/25 02:20:27;;;;;;;17.00;11.70;;;;;;;12.75;100.00;96120.61;106541;1275;24268;-84
2023/10/25 02:22:55;;;;;;;24.20;13.00;;;;;;;12.73;100.00;96119.28;106734;1282;22848;-84
2023/10/25 02:25:23;;;;;;;18.80;12.10;;;;;;;12.73;100.00;96118.97;106528;1279;25377;-84
2023/10/25 02:27:51;;;;;;;21.60;12.60;;;;;;;12.74;100.00;96118.98;106512;1283;23887;-84
2023/10/25 02:30:20;;;;;;;22.40;12.70;;;;;;;12.75;100.00;96120.86;106601;1283;22568;-83
2023/10/25 02:32:48;;;;;;;24.70;11.50;;;;;;;12.75;100.00;96122.61;106430;1281;22534;-83
2023/10/25 02:35:18;;;;;;;23.80;13.70;;;;;;;12.76;100.00;96123.19;106551;1271;24446;-84
2023/10/25 02:37:46;;;;;;;26.20;13.40;;;;;;;12.78;100.00;96120.52;106390;1278;22566;-83
2023/10/25 02:40:14;;;;;;;20.20;12.70;;;;;;;12.80;100.00;96115.17;106402;1283;22607;-84
2023/10/25 02:42:44;;;;;;;23.90;15.10;;;;;;;12.83;100.00;96115.52;106464;1272;22466;-85
2023/10/25 02:45:12;;;;;;;26.30;14.80;;;;;;;12.83;100.00;96115.77;106522;1283;22954;-84
2023/10/25 02:47:40;;;;;;;30.10;16.30;;;;;;;12.83;100.00;96109.67;106565;1273;23922;-84
2023/10/25 02:50:09;;;;;;;27.70;16.00;;;;;;;12.83;100.00;96110.81;106497;1283;25415;-84
2023/10/25 02:52:36;;;;;;;28.80;15.00;;;;;;;12.83;100.00;96114.84;106525;1283;22530;-84
2023/10/25 02:55:05;;;;;;;29.20;15.00;;;;;;;12.86;100.00;96115.20;106450;1271;25533;-84
2023/10/25 02:57:33;;;;;;;24.00;11.50;;;;;;;12.86;100.00;96112.96;106344;1283;24624;-84
2023/10/25 03:00:01;;;;;;;19.00;12.40;;;;;;;12.87;100.00;96119.77;106413;1283;24219;-83
2023/10/25 03:02:28;;;;;;;22.50;11.00;;;;;;;12.87;100.00;96118.77;106332;1273;22592;-84
2023/10/25 03:04:58;;;;;;;26.20;10.70;;;;;;;12.82;100.00;96114.80;106324;1284;25306;-84
2023/10/25 03:07:26;;;;;;;12.00;5.70;;;;;;;12.80;100.00;96116.94;106361;1269;22654;-88
2023/10/25 03:09:54;;;;;;;14.20;6.40;;;;;;;12.82;100.00;96119.27;106452;1273;25506;-84
2023/10/25 03:12:22;;;;;;;18.00;10.40;;;;;;;12.81;100.00;96125.51;106370;1284;22667;-84
2023/10/25 03:14:50;;;;;;;17.20;10.10;;;;;;;12.77;100.00;96129.47;106522;1273;22570;-85
2023/10/25 03:17:18;;;;;;;16.60;8.80;;;;;;;12.71;100.00;96130.67;106428;1283;24633;-84
2023/10/25 03:19:45;;;;;;;19.50;10.60;;;;;;;12.69;100.00;96126.61;106532;1283;22663;-84
2023/10/25 03:22:15;;;;;;;15.50;10.50;;;;;;;12.69;100.00;96128.61;106442;1269;22776;-84
2023/10/25 03:24:42;;;;;;;16.50;10.00;;;;;;;12.70;100.00;96131.94;106507;1284;24293;-84
2023/10/25 03:27:10;;;;;;;18.40;11.00;;;;;;;12.69;100.00;96133.09;106525;1283;24403;-85
2023/10/25 03:29:38;;;;;;;18.00;9.30;;;;;;;12.70;100.00;96132.50;106426;1273;25515;-85
2023/10/25 03:32:06;;;;;;;15.60;8.30;;;;;;;12.71;100.00;96125.66;106453;1283;26563;-84
2023/10/25 03:34:35;;;;;;;19.10;9.70;;;;;;;12.71;100.00;96128.27;106448;1274;22597;-85
2023/10/25 03:37:03;;;;;;;20.50;9.50;;;;;;;12.71;100.00;96125.63;106415;1283;22589;-84
2023/10/25 03:39:32;;;;;;;18.40;9.10;;;;;;;12.69;100.00;96128.45;106502;1283;23310;-84
2023/10/25 03:42:00;;;;;;;13.70;9.00;;;;;;;12.69;100.00;96124.44;106528;1283;25434;-84
2023/10/25 03:44:29;;;;;;;19.40;10.10;;;;;;;12.68;100.00;96131.36;106481;1283;25302;-84
2023/10/25 03:46:57;;;;;;;12.90;8.40;;;;;;;12.67;100.00;96131.88;106559;1283;23930;-84
2023/10/25 03:49:25;;;;;;;16.30;9.90;;;;;;;12.67;100.00;96126.80;106548;1283;24257;-84
2023/10/25 03:51:54;;;;;;;18.30;9.70;;;;;;;12.67;100.00;96123.85;106508;1277;22685;-84
2023/10/25 03:54:22;;;;;;;19.30;11.60;;;;;;;12.66;100.00;96123.38;106470;1283;25483;-84
2023/10/25 03:56:50;;;;;;;20.00;11.40;;;;;;;12.66;100.00;96124.91;106409;1268;22541;-84
2023/10/25 03:59:18;;;;;;;17.80;12.70;;;;;;;12.65;100.00;96123.98;106532;1268;22548;-84
2023/10/25 04:01:46;;;;;;;21.10;13.60;;;;;;;12.66;100.00;96122.69;106454;1283;22629;-84
2023/10/25 04:04:14;;;;;;;24.90;14.20;;;;;;;12.67;100.00;96128.27;106350;1283;25390;-84
2023/10/25 04:06:42;;;;;;;18.30;12.40;;;;;;;12.67;100.00;96129.80;106584;1268;23035;-84
2023/10/25 04:09:10;;;;;;;18.40;13.10;;;;;;;12.68;100.00;96131.36;106503;1282;25294;-84
2023/10/25 04:11:38;;;;;;;16.40;12.40;;;;;;;12.66;100.00;96131.02;106541;1282;23893;-84
2023/10/25 04:14:05;;;;;;;20.10;13.40;;;;;;;12.66;100.00;96132.55;106571;1261;24229;-84
2023/10/25 04:16:33;;;;;;;21.70;13.70;;;;;;;12.64;100.00;96135.61;106496;1282;25495;-85
2023/10/25 04:19:01;;;;;;;18.60;14.90;;;;;;;12.65;100.00;96138.10;106518;1268;25426;-84
2023/10/25 04:21:34;;;;;;;19.80;15.80;;;;;;;12.63;100.00;96137.52;106567;1283;22739;-84
2023/10/25 04:24:03;;;;;;;17.50;15.60;;;;;;;12.62;100.00;96142.98;106644;1268;24352;-84
2023/10/25 04:26:31;;;;;;;19.00;17.00;;;;;;;12.57;100.00;96145.80;106559;1283;22531;-85
2023/10/25 04:28:59;;;;;;;28.20;15.80;;;;;;;12.56;100.00;96145.23;106426;1271;22764;-85
2023/10/25 04:31:27;;;;;;;19.80;15.90;;;;;;;12.55;100.00;96145.84;106430;1283;22598;-85
2023/10/25 04:33:55;;;;;;;20.70;15.50;;;;;;;12.54;100.00;96141.02;106550;1268;24967;-85
2023/10/25 04:36:23;;;;;;;21.00;14.60;;;;;;;12.52;100.00;96141.15;106500;1277;25290;-86
2023/10/25 04:38:51;;;;;;;17.90;14.60;;;;;;;12.50;100.00;96140.88;106530;1284;22560;-86
2023/10/25 04:41:19;;;;;;;15.40;12.60;;;;;;;12.49;100.00;96146.64;107061;1283;22549;-86
2023/10/25 04:43:47;;;;;;;14.40;12.90;;;;;;;12.45;100.00;96144.70;107603;1283;24304;-85
2023/10/25 04:46:15;;;;;;;15.00;13.60;;;;;;;12.44;100.00;96150.17;107613;1283;22454;-84
2023/10/25 04:48:43;;;;;;;16.10;14.00;;;;;;;12.37;100.00;96145.38;108069;1283;22599;-83
2023/10/25 04:51:13;;;;;;;15.50;13.90;;;;;;;12.36;100.00;96151.29;106586;1283;24086;-84
2023/10/25 04:53:44;;;;;;;14.60;13.10;;;;;;;12.34;100.00;96159.52;106583;1283;23439;-84
2023/10/25 04:56:12;;;;;;;15.60;14.00;;;;;;;12.33;100.00;96163.88;106594;1275;22535;-90
2023/10/25 04:58:40;;;;;;;16.80;15.10;;;;;;;12.30;100.00;96164.60;106856;1283;22564;-91
2023/10/25 05:01:13;;;;;;;25.00;15.90;;;;;;;12.27;100.00;96164.45;107097;1283;23147;-88
2023/10/25 05:03:43;;;;;;;17.50;15.60;;;;;;;12.24;100.00;96168.56;107679;1273;22631;-88
2023/10/25 05:06:12;;;;;;;95.60;40.40;;;;;;;12.25;100.00;96171.52;107318;1283;22558;-86
2023/10/25 05:08:40;;;;;;;173.30;57.00;;;;;;;12.25;100.00;96166.66;107647;1278;22619;-92
2023/10/25 05:11:11;;;;;;;106.20;41.20;;;;;;;12.26;100.00;96175.48;107719;1283;25605;-88
2023/10/25 05:13:39;;;;;;;88.70;41.50;;;;;;;12.27;100.00;96178.98;107004;1283;22548;-91
2023/10/25 05:16:07;;;;;;;38.80;26.10;;;;;;;12.29;100.00;96182.48;107528;1280;25523;-90
2023/10/25 05:18:36;;;;;;;53.80;31.30;;;;;;;12.25;100.00;96188.94;106662;1283;23968;-87
2023/10/25 05:21:04;;;;;;;29.30;20.90;;;;;;;12.19;100.00;96189.27;106604;1283;24222;-87
2023/10/25 05:23:34;;;;;;;22.30;19.00;;;;;;;12.18;100.00;96190.58;106631;1278;24277;-86
2023/10/25 05:26:03;;;;;;;20.90;18.20;;;;;;;12.16;100.00;96198.00;106580;1271;24388;-87
2023/10/25 05:28:32;;;;;;;19.30;17.50;;;;;;;12.12;100.00;96203.69;106468;1271;26380;-86
2023/10/25 05:31:03;;;;;;;20.10;18.20;;;;;;;12.11;100.00;96210.30;106761;1283;23193;-89
2023/10/25 05:33:32;;;;;;;20.50;18.50;;;;;;;12.07;100.00;96207.02;106723;1269;22728;-88
2023/10/25 05:36:01;;;;;;;19.40;17.70;;;;;;;12.01;100.00;96209.99;106647;1268;24572;-87
2023/10/25 05:38:29;;;;;;;18.50;16.80;;;;;;;11.98;100.00;96208.98;106645;1278;25379;-84
2023/10/25 05:40:58;;;;;;;20.90;18.90;;;;;;;11.96;100.00;96212.02;106507;1283;22551;-85
2023/10/25 05:43:37;;;;;;;22.30;20.20;;;;;;;11.95;100.00;96216.48;106861;1283;23983;-88
2023/10/25 05:46:05;;;;;;;23.20;20.80;;;;;;;11.95;100.00;96223.25;106827;1283;22547;-84
2023/10/25 05:48:33;;;;;;;26.10;23.60;;;;;;;11.97;100.00;96222.75;106615;1283;25744;-92
2023/10/25 05:51:06;;;;;;;25.00;22.80;;;;;;;11.97;100.00;96231.17;106463;1283;23368;-88
2023/10/25 05:53:36;;;;;;;27.70;25.30;;;;;;;11.96;100.00;96237.77;106960;1283;22601;-88
2023/10/25 05:56:05;;;;;;;24.30;21.90;;;;;;;11.97;100.00;96247.52;106773;1283;22531;-90
2023/10/25 05:58:33;;;;;;;22.90;20.70;;;;;;;11.96;100.00;96254.05;106562;1283;25468;-90
2023/10/25 06:01:08;;;;;;;22.90;20.50;;;;;;;11.93;100.00;96253.91;106387;1283;25548;-89
2023/10/25 06:03:37;;;;;;;21.60;19.60;;;;;;;11.93;100.00;96262.23;106794;1283;22610;-87
2023/10/25 06:06:12;;;;;;;20.30;18.30;;;;;;;11.92;100.00;96265.27;106939;1283;25379;-89
2023/10/25 06:08:40;;;;;;;23.90;20.40;;;;;;;11.88;100.00;96269.73;106957;1283;23418;-87
2023/10/25 06:11:08;;;;;;;21.90;19.90;;;;;;;11.86;100.00;96271.42;106958;1283;25509;-87
2023/10/25 06:13:36;;;;;;;20.90;19.10;;;;;;;11.84;100.00;96270.45;106868;1283;24946;-88
2023/10/25 06:16:04;;;;;;;21.40;19.20;;;;;;;11.84;100.00;96277.32;106749;1283;25468;-86
2023/10/25 06:18:32;;;;;;;21.50;19.50;;;;;;;11.82;100.00;96274.64;106672;1283;22566;-88
2023/10/25 06:21:00;;;;;;;20.60;18.70;;;;;;;11.80;100.00;96280.39;106524;1283;22773;-87
2023/10/25 06:23:28;;;;;;;20.00;18.20;;;;;;;11.80;100.00;96280.85;106486;1283;22649;-88
2023/10/25 06:25:56;;;;;;;18.00;16.40;;;;;;;11.77;100.00;96285.33;106645;1283;22550;-89
2023/10/25 06:28:24;;;;;;;18.30;16.50;;;;;;;11.75;100.00;96283.64;106599;1283;22538;-88
2023/10/25 06:30:55;;;;;;;16.60;15.10;;;;;;;11.73;100.00;96288.60;106596;1283;22779;-87
2023/10/25 06:33:24;;;;;;;17.30;15.50;;;;;;;11.70;100.00;96289.61;106923;1283;25223;-90
2023/10/25 06:35:58;;;;;;;16.90;15.30;;;;;;;11.71;100.00;96290.54;106587;1283;25667;-88
2023/10/25 06:38:26;;;;;;;15.10;14.70;;;;;;;11.67;100.00;96289.60;106664;1283;23134;-87
2023/10/25 06:40:54;;;;;;;15.90;14.50;;;;;;;11.63;100.00;96293.56;106651;1283;24283;-88
2023/10/25 06:43:23;;;;;;;14.20;12.80;;;;;;;11.62;100.00;96295.52;106558;1262;24281;-88
2023/10/25 06:45:52;;;;;;;14.60;13.20;;;;;;;11.59;100.00;96302.48;106555;1283;23516;-87
2023/10/25 06:48:20;;;;;;;12.70;10.90;;;;;;;11.54;100.00;96304.13;106462;1283;24241;-88
2023/10/25 06:50:48;;;;;;;12.20;11.00;;;;;;;11.53;100.00;96305.84;106632;1283;22533;-89
2023/10/25 06:53:17;;;;;;;13.20;11.90;;;;;;;11.46;100.00;96307.52;106488;1283;22560;-88
2023/10/25 06:55:47;;;;;;;11.60;10.60;;;;;;;11.42;100.00;96306.69;106524;1283;22801;-89
2023/10/25 06:58:16;;;;;;;11.80;10.70;;;;;;;11.39;100.00;96312.10;106583;1283;24270;-86
2023/10/25 07:00:44;;;;;;;13.70;12.40;;;;;;;11.40;100.00;96309.71;106723;1283;22546;-87
2023/10/25 07:03:13;;;;;;;15.20;13.60;;;;;;;11.40;100.00;96315.97;106631;1283;25638;-87
2023/10/25 07:05:44;;;;;;;14.80;12.90;;;;;;;11.37;100.00;96318.73;106798;1283;22544;-86
2023/10/25 07:08:13;;;;;;;14.70;13.40;;;;;;;11.36;100.00;96325.42;106390;1283;22526;-90
2023/10/25 07:10:41;;;;;;;15.20;13.30;;;;;;;11.33;100.00;96323.48;106546;1283;22617;-89
2023/10/25 07:13:09;;;;;;;15.80;12.90;;;;;;;11.33;100.00;96326.89;106708;1283;22783;-89
2023/10/25 07:15:37;;;;;;;16.00;14.40;;;;;;;11.32;100.00;96330.23;106548;1283;23233;-86
2023/10/25 07:18:05;;;;;;;18.50;15.60;;;;;;;11.30;100.00;96329.50;106704;1283;25414;-89
2023/10/25 07:20:33;;;;;;;16.50;14.40;;;;;;;11.31;100.00;96332.52;106874;1279;25657;-89
2023/10/25 07:23:01;;;;;;;17.00;15.20;;;;;;;11.32;100.00;96325.09;106636;1283;25429;-88
2023/10/25 07:25:29;;;;;;;18.60;16.70;;;;;;;11.31;100.00;96325.29;106653;1283;22607;-89
2023/10/25 07:27:56;;;;;;;38.60;23.40;;;;;;;11.32;100.00;96326.94;106817;1283;24184;-90
2023/10/25 07:30:25;;;;;;;20.50;18.20;;;;;;;11.29;100.00;96329.48;106473;1283;24250;-89
2023/10/25 07:32:52;;;;;;;19.50;17.60;;;;;;;11.30;100.00;96332.17;106681;1283;22708;-88
2023/10/25 07:35:21;;;;;;;20.00;18.10;;;;;;;11.26;100.00;96334.48;106457;1283;22781;-90
2023/10/25 07:37:49;;;;;;;19.10;17.30;;;;;;;11.28;100.00;96341.91;106731;1283;22667;-88
2023/10/25 07:40:17;;;;;;;21.30;17.10;;;;;;;11.24;100.00;96342.88;106418;1284;22702;-89
2023/10/25 07:42:46;;;;;;;19.90;17.80;;;;;;;11.24;100.00;96342.95;106378;1284;22563;-88
2023/10/25 07:45:14;;;;;;;20.50;18.10;;;;;;;11.24;100.00;96342.02;106382;1284;22902;-90
2023/10/25 07:47:42;;;;;;;19.30;16.10;;;;;;;11.23;100.00;96348.40;106498;1284;25474;-89
2023/10/25 07:50:10;;;;;;;22.70;19.90;;;;;;;11.22;100.00;96345.73;106422;1282;22550;-88
2023/10/25 07:52:38;;;;;;;20.50;18.10;;;;;;;11.22;100.00;96344.51;106396;1284;24242;-89
2023/10/25 07:55:06;;;;;;;18.70;16.90;;;;;;;11.20;100.00;96353.01;106411;1281;26636;-88
2023/10/25 07:57:54;;;;;;;20.70;18.60;;;;;;;11.16;100.00;96350.11;106453;1284;25553;-89
2023/10/25 08:00:25;;;;;;;19.50;17.50;;;;;;;11.16;100.00;96353.44;106403;1284;23025;-89
2023/10/25 08:02:53;;;;;;;19.20;17.20;;;;;;;11.13;100.00;96352.79;106447;1284;27911;-88
2023/10/25 08:05:21;;;;;;;19.90;17.80;;;;;;;11.12;100.00;96356.84;106368;1284;23327;-89
2023/10/25 08:07:49;;;;;;;22.00;17.40;;;;;;;11.11;100.00;96356.98;106477;1284;23893;-88
2023/10/25 08:10:17;;;;;;;20.10;18.20;;;;;;;11.09;100.00;96367.63;106502;1267;22633;-89
2023/10/25 08:12:45;;;;;;;18.60;16.80;;;;;;;11.07;100.00;96368.02;106973;1284;22574;-90
2023/10/25 08:15:14;;;;;;;21.00;17.20;;;;;;;11.05;100.00;96363.55;107747;1284;22631;-87
2023/10/25 08:17:42;;;;;;;19.30;17.40;;;;;;;11.02;100.00;96364.70;106400;1284;24107;-88
2023/10/25 08:20:10;;;;;;;19.60;17.60;;;;;;;11.03;100.00;96367.87;106577;1284;24120;-88
2023/10/25 08:22:39;;;;;;;20.00;17.80;;;;;;;10.99;100.00;96370.52;106711;1284;25905;-89
2023/10/25 08:25:08;;;;;;;20.20;18.20;;;;;;;10.99;100.00;96377.17;107746;1284;24425;-87
2023/10/25 08:27:37;;;;;;;21.00;18.90;;;;;;;11.01;100.00;96373.36;107509;1284;22542;-87
2023/10/25 08:30:06;;;;;;;20.80;18.70;;;;;;;10.97;100.00;96380.41;107697;1284;24236;-88
2023/10/25 08:32:34;;;;;;;21.10;18.90;;;;;;;10.97;100.00;96380.42;106395;1284;22640;-89
2023/10/25 08:35:02;;;;;;;20.20;18.10;;;;;;;10.93;100.00;96379.61;106488;1284;22665;-88
2023/10/25 08:37:30;;;;;;;20.00;17.90;;;;;;;10.86;100.00;96382.56;106646;1283;23911;-89
2023/10/25 08:39:58;;;;;;;19.60;17.60;;;;;;;10.84;100.00;96383.56;106723;1283;22634;-88
2023/10/25 08:42:26;;;;;;;21.60;17.00;;;;;;;10.84;100.00;96382.64;106705;1283;22575;-88
2023/10/25 08:44:54;;;;;;;19.40;17.50;;;;;;;10.83;100.00;96385.85;106841;1283;25645;-88
2023/10/25 08:47:22;;;;;;;19.50;17.20;;;;;;;10.84;100.00;96388.86;107089;1283;25398;-87
2023/10/25 08:49:50;;;;;;;19.10;17.20;;;;;;;10.82;100.00;96387.66;106610;1283;24226;-87
2023/10/25 08:52:24;;;;;;;18.90;16.90;;;;;;;10.82;100.00;96394.89;106503;1283;24069;-89
2023/10/25 08:54:52;;;;;;;17.30;15.70;;;;;;;10.83;100.00;96392.53;106538;1278;24258;-89
2023/10/25 08:57:19;;;;;;;18.70;16.80;;;;;;;10.84;100.00;96395.71;106567;1283;22620;-89
2023/10/25 08:59:48;;;;;;;19.10;16.10;;;;;;;10.86;100.00;96392.77;106539;1283;22924;-89
2023/10/25 09:02:16;;;;;;;17.90;14.90;;;;;;;10.91;100.00;96399.10;106539;1259;25622;-89
2023/10/25 09:04:57;;;;;;;16.50;14.80;;;;;;;10.91;100.00;96398.63;106533;1283;22624;-89
2023/10/25 09:07:28;;;;;;;16.90;15.20;;;;;;;10.94;100.00;96388.38;106611;1283;22530;-88
2023/10/25 09:09:57;;;;;;;18.30;16.50;;;;;;;10.96;100.00;96383.60;106597;1283;25607;-89
2023/10/25 09:12:25;;;;;;;18.40;16.50;;;;;;;10.94;100.00;96381.92;106716;1270;22544;-89
2023/10/25 09:14:53;;;;;;;19.40;17.30;;;;;;;10.95;100.00;96383.65;106567;1283;22648;-89
2023/10/25 09:17:21;;;;;;;18.80;16.90;;;;;;;10.99;100.00;96388.70;106652;1283;22596;-88
2023/10/25 09:19:50;;;;;;;18.70;16.70;;;;;;;11.03;100.00;96389.80;106593;1283;22566;-89
2023/10/25 09:22:30;;;;;;;22.50;17.60;;;;;;;11.05;100.00;96394.38;106637;1281;25359;-90
2023/10/25 09:25:00;;;;;;;19.70;17.50;;;;;;;11.07;100.00;96396.75;106861;1283;24049;-88
2023/10/25 09:27:28;;;;;;;20.00;17.40;;;;;;;11.09;100.00;96398.20;106757;1283;22544;-87
2023/10/25 09:30:15;;;;;;;19.80;15.30;;;;;;;11.11;100.00;96401.27;106599;1283;22644;-87
2023/10/25 09:32:54;;;;;;;15.80;15.70;;;;;;;11.15;100.00;96401.77;106725;1283;25289;-88
2023/10/25 09:35:23;;;;;;;18.00;15.70;;;;;;;11.17;100.00;96402.52;106588;1283;25452;-87
2023/10/25 09:37:51;;;;;;;17.30;15.70;;;;;;;11.19;100.00;96406.81;106690;1283;22587;-88
2023/10/25 09:40:19;;;;;;;15.70;14.20;;;;;;;11.22;100.00;96415.54;106428;1283;22575;-88
2023/10/25 09:42:52;;;;;;;15.90;14.30;;;;;;;11.23;100.00;96410.85;106621;1283;24199;-87
2023/10/25 09:45:26;;;;;;;20.30;13.60;;;;;;;11.24;100.00;96411.52;106628;1283;22714;-88
2023/10/25 09:48:00;;;;;;;15.10;13.40;;;;;;;11.28;100.00;96418.56;106406;1283;151851;-88
2023/10/25 09:50:41;;;;;;;15.60;14.00;;;;;;;11.30;100.00;96416.71;106632;1283;22610;-87
2023/10/25 09:53:43;;;;;;;15.30;13.80;;;;;;;11.28;100.00;96419.40;106583;1283;25264;-87
2023/10/25 09:56:13;;;;;;;14.60;13.10;;;;;;;11.29;100.00;96420.05;106513;1283;25413;-86
2023/10/25 09:58:42;;;;;;;15.00;13.60;;;;;;;11.32;100.00;96420.45;106556;1283;22599;-88
2023/10/25 10:01:10;;;;;;;13.50;12.20;;;;;;;11.32;100.00;96426.63;106594;1283;23919;-87
2023/10/25 10:04:01;;;;;;;13.90;12.50;;;;;;;11.32;100.00;96425.92;106610;1283;22540;-88
2023/10/25 10:06:39;;;;;;;13.60;12.30;;;;;;;11.35;100.00;96425.71;106574;1283;23120;-87
2023/10/25 10:09:31;;;;;;;14.20;12.80;;;;;;;11.38;100.00;96433.83;106642;1283;24258;-88
2023/10/25 10:12:05;;;;;;;13.40;12.00;;;;;;;11.41;100.00;96433.05;106670;1283;22634;-89
2023/10/25 10:14:38;;;;;;;13.10;11.80;;;;;;;11.41;100.00;96436.29;106532;1283;22758;-89
2023/10/25 10:17:13;;;;;;;14.10;12.80;;;;;;;11.43;100.00;96439.73;106491;1283;24396;-89
2023/10/25 10:19:46;;;;;;;13.00;11.30;;;;;;;11.45;100.00;96439.03;106640;1283;24237;-87
2023/10/25 10:22:16;;;;;;;12.60;11.40;;;;;;;11.48;100.00;96443.88;106624;1283;24210;-89
2023/10/25 10:24:49;;;;;;;14.20;11.70;;;;;;;11.47;100.00;96447.04;106728;1283;23076;-89
2023/10/25 10:27:20;;;;;;;13.20;11.70;;;;;;;11.45;100.00;96448.27;106619;1281;22561;-88
2023/10/25 10:29:51;;;;;;;12.70;11.30;;;;;;;11.43;100.00;96451.52;106706;1283;23282;-87
2023/10/25 10:32:19;;;;;;;11.90;10.60;;;;;;;11.44;100.00;96450.47;106754;1283;26653;-89
2023/10/25 10:34:49;;;;;;;10.90;9.80;;;;;;;11.45;100.00;96446.10;106627;1283;22553;-88
2023/10/25 10:37:20;;;;;;;11.90;10.60;;;;;;;11.46;100.00;96443.91;106520;1283;23896;-88
2023/10/25 10:39:58;;;;;;;10.80;9.60;;;;;;;11.46;100.00;96443.60;106743;1283;22551;-89
2023/10/25 10:42:33;;;;;;;9.90;8.90;;;;;;;11.45;100.00;96439.98;106680;1283;24242;-87
2023/10/25 10:45:04;;;;;;;11.10;9.60;;;;;;;11.47;100.00;96437.95;106720;1283;23415;-86
2023/10/25 10:47:41;;;;;;;19.50;12.30;;;;;;;11.50;100.00;96440.73;106711;1283;22640;-87
2023/10/25 10:50:11;;;;;;;11.70;10.50;;;;;;;11.52;100.00;96443.45;106647;1269;22540;-88
2023/10/25 10:52:40;;;;;;;9.50;8.10;;;;;;;11.52;100.00;96441.70;106695;1283;22706;-89
2023/10/25 10:55:13;;;;;;;10.70;9.60;;;;;;;11.53;100.00;96440.50;106752;1283;22541;-89
2023/10/25 10:57:42;;;;;;;10.90;9.80;;;;;;;11.55;100.00;96441.31;106639;1283;22830;-87
2023/10/25 11:00:31;;;;;;;11.50;10.30;;;;;;;11.54;100.00;96442.38;106449;1283;24112;-88
2023/10/25 11:03:02;;;;;;;12.20;10.70;;;;;;;11.56;100.00;96450.48;106568;1283;22548;-88
2023/10/25 11:05:37;;;;;;;10.70;8.20;;;;;;;11.58;100.00;96453.74;106645;1283;22550;-88
2023/10/25 11:08:13;;;;;;;11.00;8.20;;;;;;;11.59;100.00;96457.41;106677;1283;22817;-88
2023/10/25 11:10:43;;;;;;;13.00;8.70;;;;;;;11.58;100.00;96458.45;106680;1283;22612;-88
2023/10/25 11:13:11;;;;;;;9.80;8.60;;;;;;;11.55;100.00;96454.52;106923;1263;24287;-87
2023/10/25 11:15:39;;;;;;;11.80;9.70;;;;;;;11.54;100.00;96444.31;106630;1271;23162;-89
2023/10/25 11:18:11;;;;;;;10.00;8.10;;;;;;;11.56;100.00;96445.38;106492;1274;22657;-90